Terminal Aerodrome Forecast
Issued by NWS

Home | Current Version | Previous Version | Text Only | Print | Product List | Glossary Off
Versions: 1 2 3 4 5 6 7 8 9 10 11 12 13 14 15 16

000
FTUS43 KICT 201632 AAB
TAFRSL
TAF AMD
KRSL 201632Z 2017/2112 14006KT 3SM BR OVC002
     FM201830 18007KT P6SM OVC008
     FM202200 18007KT P6SM BKN015
     FM210200 25005KT P6SM SCT030=

USA.gov is the U.S. government's official web portal to all federal, state and local government web resources and services.